Time;durP1;ratioP1;P1;durP2;ratioP2;P2;SDS_P1;SDS_P2;PMS_P1;PMS_P2;Temp;Humidity;BMP_temperature;BMP_pressure;BME280_temperature;BME280_humidity;BME280_pressure;Samples;Min_cycle;Max_cycle;Signal;HPM_P1;HPM_P2
2022/07/19 00:00:31;;;;;;;5.85;2.33;;;18.80;97.30;;;;;;5048912;28;20047;-47
2022/07/19 00:02:57;;;;;;;31.17;2.67;;;18.70;97.20;;;;;;5043670;28;20113;-46
2022/07/19 00:05:22;;;;;;;8.90;2.42;;;18.70;97.00;;;;;;5038554;28;20096;-45
2022/07/19 00:07:48;;;;;;;;;;;18.70;96.90;;;;;;5037020;28;20041;-45
2022/07/19 00:10:16;;;;;;;8.73;2.40;;;18.60;97.20;;;;;;5049732;28;19931;-45
2022/07/19 00:12:42;;;;;;;5.38;2.17;;;18.70;97.20;;;;;;5049827;28;20468;-47
2022/07/19 00:15:11;;;;;;;7.35;2.38;;;18.70;97.20;;;;;;5050359;28;20095;-49
2022/07/19 00:17:46;;;;;;;4.05;2.65;;;18.70;97.20;;;;;;5050105;28;20051;-46
2022/07/19 00:20:14;;;;;;;4.55;2.67;;;18.60;97.20;;;;;;5048983;28;20043;-48
2022/07/19 00:22:40;;;;;;;7.38;2.92;;;18.60;97.10;;;;;;5049390;28;20409;-46
2022/07/19 00:25:06;;;;;;;3.00;2.03;;;18.50;97.30;;;;;;5050235;28;20041;-49
2022/07/19 00:27:31;;;;;;;3.38;2.42;;;18.50;97.20;;;;;;5049991;28;20040;-46
2022/07/19 00:29:57;;;;;;;6.55;2.92;;;18.40;97.00;;;;;;5048656;28;20040;-44
2022/07/19 00:32:22;;;;;;;;;;;18.40;97.30;;;;;;5050179;28;20037;-44
2022/07/19 00:34:48;;;;;;;6.35;3.42;;;18.50;98.00;;;;;;5050177;28;19920;-46
2022/07/19 00:37:13;;;;;;;4.05;3.40;;;18.50;98.00;;;;;;5050445;28;20033;-45
2022/07/19 00:39:39;;;;;;;7.72;3.85;;;18.40;97.80;;;;;;5046962;28;20108;-49
2022/07/19 00:42:04;;;;;;;13.25;3.60;;;18.50;97.90;;;;;;5036294;28;20509;-47
2022/07/19 00:44:30;;;;;;;6.50;3.72;;;18.50;97.80;;;;;;5042211;28;20406;-46
2022/07/19 00:46:56;;;;;;;16.85;3.90;;;18.50;97.80;;;;;;5041878;28;20397;-48
2022/07/19 00:49:22;;;;;;;15.73;5.85;;;18.50;97.70;;;;;;5047742;28;20033;-47
2022/07/19 00:51:52;;;;;;;4.95;4.47;;;18.50;98.00;;;;;;5040153;28;20371;-45
2022/07/19 00:54:19;;;;;;;9.32;4.25;;;18.50;98.10;;;;;;5040598;28;20068;-46
2022/07/19 00:56:48;;;;;;;7.63;4.25;;;18.40;98.40;;;;;;5030660;28;20044;-46
2022/07/19 00:59:14;;;;;;;4.13;3.67;;;18.50;98.60;;;;;;5037210;28;20034;-45
2022/07/19 01:01:40;;;;;;;7.05;4.13;;;18.50;98.60;;;;;;5040199;28;20086;-45
2022/07/19 01:04:06;;;;;;;;;;;18.40;98.40;;;;;;5034480;28;20440;-44
2022/07/19 01:06:32;;;;;;;5.50;2.78;;;18.30;98.30;;;;;;5043519;28;19948;-45
2022/07/19 01:08:57;;;;;;;3.70;2.90;;;18.30;98.10;;;;;;5037307;28;20129;-44
2022/07/19 01:11:23;;;;;;;5.07;2.83;;;18.20;98.10;;;;;;5037630;28;20045;-48
2022/07/19 01:13:49;;;;;;;3.95;2.90;;;18.20;98.10;;;;;;5037792;28;20040;-45
2022/07/19 01:16:15;;;;;;;9.57;3.40;;;18.20;98.30;;;;;;5044542;28;20030;-47
2022/07/19 01:18:41;;;;;;;3.50;3.20;;;18.20;98.60;;;;;;5038086;28;20391;-46
2022/07/19 01:21:08;;;;;;;7.22;3.80;;;18.20;98.70;;;;;;5045196;28;20041;-45
2022/07/19 01:23:33;;;;;;;8.10;3.92;;;18.30;98.70;;;;;;5036238;28;20045;-44
2022/07/19 01:25:59;;;;;;;7.85;3.78;;;18.30;98.80;;;;;;5043995;28;20037;-47
2022/07/19 01:28:24;;;;;;;6.13;4.80;;;18.30;98.70;;;;;;5044928;28;20033;-45
2022/07/19 01:30:53;;;;;;;6.40;4.53;;;18.30;98.80;;;;;;5034164;28;20041;-45
2022/07/19 01:33:19;;;;;;;6.20;4.88;;;18.30;98.60;;;;;;5037090;28;20391;-46
2022/07/19 01:35:44;;;;;;;7.10;4.20;;;18.40;98.70;;;;;;5036437;28;20037;-47
2022/07/19 01:38:10;;;;;;;5.28;3.67;;;18.30;98.40;;;;;;5031893;28;20041;-47
2022/07/19 01:40:35;;;;;;;;;;;18.30;98.40;;;;;;5045873;28;20403;-47
2022/07/19 01:43:01;;;;;;;10.45;4.32;;;18.30;98.80;;;;;;5030558;28;20362;-50
2022/07/19 01:45:27;;;;;;;5.55;4.22;;;18.30;98.50;;;;;;5044603;28;20072;-45
2022/07/19 01:47:52;;;;;;;5.20;3.65;;;18.30;98.30;;;;;;5039168;28;20072;-48
2022/07/19 01:50:18;;;;;;;8.23;4.82;;;18.40;98.40;;;;;;5029509;28;20534;-44
2022/07/19 01:52:44;;;;;;;9.63;3.47;;;18.40;98.50;;;;;;5029246;28;20038;-47
2022/07/19 01:55:10;;;;;;;5.03;3.80;;;18.30;98.20;;;;;;5028290;28;20049;-46
2022/07/19 01:57:36;;;;;;;8.73;4.65;;;18.40;98.30;;;;;;5029413;28;20449;-48
2022/07/19 02:00:02;;;;;;;5.10;3.85;;;18.40;98.30;;;;;;5029388;28;20215;-46
2022/07/19 02:02:28;;;;;;;6.75;3.70;;;18.40;98.20;;;;;;5031910;28;20030;-45
2022/07/19 02:04:53;;;;;;;5.22;3.35;;;18.30;98.20;;;;;;5032412;28;20033;-46
2022/07/19 02:07:19;;;;;;;5.03;3.65;;;18.30;98.30;;;;;;5032609;28;20120;-48
2022/07/19 02:09:44;;;;;;;10.10;3.80;;;18.30;98.40;;;;;;5032693;28;20065;-45
2022/07/19 02:12:10;;;;;;;68.70;6.93;;;18.30;98.40;;;;;;5032379;28;20045;-44
2022/07/19 02:14:36;;;;;;;19.25;3.65;;;18.20;98.60;;;;;;5032188;28;20041;-49
2022/07/19 02:17:01;;;;;;;5.78;3.38;;;18.20;98.60;;;;;;5032847;28;20041;-45
2022/07/19 02:19:27;;;;;;;7.90;3.42;;;18.20;98.60;;;;;;5032312;28;20041;-45
2022/07/19 02:21:52;;;;;;;10.30;3.40;;;18.10;98.30;;;;;;5032515;28;20656;-46
2022/07/19 02:24:18;;;;;;;5.35;3.05;;;18.00;98.30;;;;;;5032354;28;20041;-44
2022/07/19 02:26:45;;;;;;;7.43;3.25;;;18.00;98.50;;;;;;5032671;28;20037;-45
2022/07/19 02:29:10;;;;;;;11.75;3.50;;;17.90;98.50;;;;;;5032243;28;20127;-46
2022/07/19 02:31:36;;;;;;;7.57;3.78;;;17.90;98.50;;;;;;5032348;28;20071;-44
2022/07/19 02:34:02;;;;;;;6.88;3.15;;;17.80;98.80;;;;;;5031544;28;20044;-45
2022/07/19 02:36:27;;;;;;;6.65;3.75;;;17.90;98.90;;;;;;5032209;28;20506;-46
2022/07/19 02:38:53;;;;;;;6.32;3.70;;;17.80;99.00;;;;;;5032363;28;20037;-46
2022/07/19 02:41:18;;;;;;;9.63;4.13;;;17.80;99.00;;;;;;5031996;28;20030;-45
2022/07/19 02:43:44;;;;;;;6.70;3.90;;;17.90;99.10;;;;;;5031909;28;20068;-44
2022/07/19 02:46:10;;;;;;;12.50;4.22;;;17.90;99.10;;;;;;5031977;28;20719;-46
2022/07/19 02:48:35;;;;;;;14.38;4.03;;;17.90;99.00;;;;;;5037875;28;20052;-45
2022/07/19 02:51:01;;;;;;;11.65;4.97;;;17.90;99.00;;;;;;5035457;28;20045;-44
2022/07/19 02:53:27;;;;;;;10.80;4.18;;;18.00;98.80;;;;;;5031860;28;20350;-46
2022/07/19 02:55:53;;;;;;;9.23;3.65;;;18.00;98.70;;;;;;5045188;28;20074;-48
2022/07/19 02:58:18;;;;;;;3.65;2.92;;;18.00;98.70;;;;;;5044769;28;20048;-49
2022/07/19 03:00:44;;;;;;;35.63;4.28;;;18.00;98.80;;;;;;5041131;28;20069;-44
2022/07/19 03:05:55;;;;;;;7.93;4.00;;;17.90;98.70;;;;;;5046537;28;20067;-45
2022/07/19 03:08:21;;;;;;;6.65;3.60;;;17.80;98.70;;;;;;5032853;28;20041;-48
2022/07/19 03:10:47;;;;;;;11.13;3.90;;;17.80;98.70;;;;;;5043143;28;20121;-44
2022/07/19 03:13:12;;;;;;;5.60;3.40;;;17.80;98.60;;;;;;5047216;28;20052;-45
2022/07/19 03:15:38;;;;;;;9.40;3.00;;;17.80;98.60;;;;;;5041710;28;20045;-43
2022/07/19 03:18:04;;;;;;;5.88;2.65;;;17.80;98.50;;;;;;5040266;28;20033;-45
2022/07/19 03:20:29;;;;;;;6.40;4.43;;;17.70;98.50;;;;;;5043618;28;20514;-47
2022/07/19 03:22:55;;;;;;;3.67;3.22;;;17.70;98.70;;;;;;5044967;28;20091;-45
2022/07/19 03:25:21;;;;;;;2.70;2.38;;;17.70;98.40;;;;;;5040268;28;20047;-47
2022/07/19 03:27:46;;;;;;;3.38;3.03;;;17.60;98.10;;;;;;5051255;28;20414;-47
2022/07/19 03:30:12;;;;;;;6.05;3.70;;;17.50;98.30;;;;;;5046205;28;20546;-46
2022/07/19 03:32:37;;;;;;;7.00;3.33;;;17.40;98.50;;;;;;5031659;28;20041;-48
2022/07/19 03:35:03;;;;;;;3.08;2.63;;;17.40;98.70;;;;;;5040699;28;20452;-45
2022/07/19 03:37:29;;;;;;;8.70;3.00;;;17.30;98.50;;;;;;5036471;28;20067;-45
2022/07/19 03:39:54;;;;;;;3.70;2.78;;;17.20;98.70;;;;;;5043292;28;20038;-44
2022/07/19 03:42:20;;;;;;;6.82;3.17;;;17.20;98.50;;;;;;5032526;28;20045;-45
2022/07/19 03:44:45;;;;;;;3.33;3.03;;;17.20;98.90;;;;;;5041028;28;20044;-44
2022/07/19 03:47:11;;;;;;;5.85;3.00;;;17.10;99.00;;;;;;5038884;28;20041;-45
2022/07/19 03:49:36;;;;;;;10.80;3.38;;;17.10;99.20;;;;;;5050908;28;20040;-48
2022/07/19 03:52:02;;;;;;;5.72;3.53;;;17.10;99.40;;;;;;5049235;28;20179;-46
2022/07/19 03:54:28;;;;;;;9.07;4.38;;;17.10;99.60;;;;;;5043555;28;20040;-45
2022/07/19 03:56:55;;;;;;;5.47;3.95;;;17.10;99.60;;;;;;5042249;28;20037;-48
2022/07/19 03:59:22;;;;;;;5.75;3.50;;;17.10;99.60;;;;;;5040743;28;20055;-46
2022/07/19 04:01:48;;;;;;;3.28;2.95;;;17.10;99.70;;;;;;5031896;28;20168;-44
2022/07/19 04:04:14;;;;;;;7.03;3.63;;;17.10;99.70;;;;;;5045754;28;20037;-44
2022/07/19 04:06:40;;;;;;;9.90;5.38;;;17.10;99.70;;;;;;5029739;28;20052;-45
2022/07/19 04:09:05;;;;;;;7.93;3.72;;;17.10;99.50;;;;;;5032063;28;20123;-46
2022/07/19 04:11:31;;;;;;;6.80;3.45;;;17.10;99.60;;;;;;5049066;28;20076;-45
2022/07/19 04:13:56;;;;;;;6.20;3.00;;;17.00;99.40;;;;;;5046598;28;20115;-44
2022/07/19 04:16:22;;;;;;;4.25;3.83;;;16.90;99.30;;;;;;5050500;28;20052;-45
2022/07/19 04:18:47;;;;;;;7.45;2.85;;;16.90;99.40;;;;;;5050364;28;20043;-46
2022/07/19 04:21:13;;;;;;;11.77;4.05;;;16.90;99.50;;;;;;5050548;28;20045;-46
2022/07/19 04:23:38;;;;;;;4.32;3.63;;;16.90;99.70;;;;;;5034481;28;20041;-47
2022/07/19 04:26:04;;;;;;;7.45;5.38;;;16.80;99.90;;;;;;5031384;28;20116;-43
2022/07/19 04:28:29;;;;;;;6.13;4.65;;;16.80;99.90;;;;;;5030479;28;20145;-45
2022/07/19 04:30:55;;;;;;;7.68;4.90;;;16.80;99.90;;;;;;5030227;28;20048;-44
2022/07/19 04:33:21;;;;;;;7.78;5.22;;;16.80;99.90;;;;;;5030043;28;20116;-45
2022/07/19 04:35:46;;;;;;;6.05;5.45;;;16.90;99.90;;;;;;5043004;28;20041;-46
2022/07/19 04:38:12;;;;;;;7.05;5.15;;;16.90;99.90;;;;;;5047689;28;20094;-48
2022/07/19 04:40:38;;;;;;;6.18;4.88;;;16.90;99.90;;;;;;5036834;28;20033;-44
2022/07/19 04:43:05;;;;;;;5.63;4.03;;;16.90;99.90;;;;;;5047471;28;20028;-44
2022/07/19 04:45:30;;;;;;;5.93;4.75;;;16.90;99.90;;;;;;5042316;28;20049;-45
2022/07/19 04:47:56;;;;;;;5.00;3.97;;;16.90;99.90;;;;;;5040577;28;20032;-44
2022/07/19 04:50:22;;;;;;;8.65;5.00;;;16.90;99.90;;;;;;5031308;28;20120;-45
2022/07/19 04:52:47;;;;;;;8.25;5.15;;;17.00;99.90;;;;;;5039579;28;20164;-45
2022/07/19 04:55:13;;;;;;;11.65;5.63;;;17.00;99.90;;;;;;5032683;28;20075;-44
2022/07/19 04:57:39;;;;;;;8.18;5.63;;;17.00;99.90;;;;;;5044785;28;20509;-43
2022/07/19 05:00:09;;;;;;;11.02;6.07;;;17.00;99.90;;;;;;5034061;28;20037;-45
2022/07/19 05:02:36;;;;;;;6.55;5.75;;;17.10;99.90;;;;;;5038014;28;20037;-45
2022/07/19 05:05:02;;;;;;;7.82;5.68;;;17.10;99.90;;;;;;5034980;28;20049;-44
2022/07/19 05:07:27;;;;;;;9.55;5.25;;;17.20;99.90;;;;;;5031149;28;20041;-45
2022/07/19 05:09:53;;;;;;;14.55;5.97;;;17.30;99.90;;;;;;5042283;28;20037;-44
2022/07/19 05:12:19;;;;;;;7.88;5.85;;;17.30;99.50;;;;;;5049778;28;20126;-44
2022/07/19 05:14:44;;;;;;;9.85;5.50;;;17.40;99.40;;;;;;5049345;28;20056;-46
2022/07/19 05:17:10;;;;;;;9.60;5.90;;;17.50;99.20;;;;;;5039179;28;20060;-45
2022/07/19 05:19:35;;;;;;;10.07;6.25;;;17.50;99.00;;;;;;5030572;28;20030;-45
2022/07/19 05:22:01;;;;;;;8.45;6.18;;;17.60;99.00;;;;;;5029706;28;20084;-46
2022/07/19 05:24:26;;;;;;;30.58;7.03;;;17.70;98.90;;;;;;5041857;28;20096;-44
2022/07/19 05:26:52;;;;;;;20.35;7.38;;;17.80;98.80;;;;;;5032901;28;20033;-46
2022/07/19 05:29:18;;;;;;;46.20;7.80;;;17.80;98.80;;;;;;5040692;28;20483;-45
2022/07/19 05:31:43;;;;;;;10.43;6.18;;;17.90;99.20;;;;;;5030874;28;20048;-47
2022/07/19 05:34:09;;;;;;;12.98;6.85;;;18.00;99.60;;;;;;5041666;28;20037;-44
2022/07/19 05:36:34;;;;;;;9.93;6.25;;;18.10;99.60;;;;;;5038408;28;20059;-47
2022/07/19 05:39:00;;;;;;;12.60;6.90;;;18.20;99.30;;;;;;5047235;28;20041;-44
2022/07/19 05:41:25;;;;;;;9.35;6.65;;;18.20;99.90;;;;;;5048107;28;20139;-45
2022/07/19 05:43:52;;;;;;;13.77;7.70;;;18.40;99.90;;;;;;5035208;28;20033;-47
2022/07/19 05:46:17;;;;;;;8.65;6.70;;;18.40;99.90;;;;;;5037271;28;20410;-45
2022/07/19 05:48:43;;;;;;;9.80;7.13;;;18.50;99.90;;;;;;5039433;28;20041;-44
2022/07/19 05:51:09;;;;;;;13.32;6.60;;;18.60;99.90;;;;;;5032891;28;20052;-44
2022/07/19 05:53:35;;;;;;;11.48;7.07;;;18.70;99.90;;;;;;5032669;28;20266;-45
2022/07/19 05:56:01;;;;;;;14.48;6.80;;;18.70;99.90;;;;;;5032958;28;20037;-45
2022/07/19 05:58:27;;;;;;;9.55;7.30;;;18.80;99.90;;;;;;5034322;28;20032;-45
2022/07/19 06:03:38;;;;;;;13.75;6.78;;;18.90;99.90;;;;;;5032256;28;20038;-44
2022/07/19 06:06:04;;;;;;;11.85;7.38;;;19.00;99.90;;;;;;5029263;28;20045;-43
2022/07/19 06:08:30;;;;;;;;;;;19.10;99.90;;;;;;5033851;28;20051;-46
2022/07/19 06:10:56;;;;;;;99.97;10.57;;;19.20;99.90;;;;;;5034810;28;19917;-49
2022/07/19 06:13:22;;;;;;;;;;;19.30;99.70;;;;;;5034564;28;20060;-48
2022/07/19 06:15:47;;;;;;;28.90;8.00;;;19.40;99.80;;;;;;5033683;28;19924;-46
2022/07/19 06:18:13;;;;;;;15.18;5.13;;;19.40;99.40;;;;;;5037349;28;20029;-46
2022/07/19 06:20:38;;;;;;;;;;;19.50;99.10;;;;;;5028128;28;20064;-49
2022/07/19 06:23:04;;;;;;;9.90;6.05;;;19.60;98.30;;;;;;5033629;28;20399;-49
2022/07/19 06:25:29;;;;;;;;;;;19.70;98.60;;;;;;5043289;28;20033;-49
2022/07/19 06:27:55;;;;;;;211.05;18.25;;;19.80;98.40;;;;;;5044325;28;19926;-48
2022/07/19 06:30:20;;;;;;;;;;;19.90;98.50;;;;;;5033774;28;20076;-45
2022/07/19 06:32:46;;;;;;;8.85;6.18;;;20.00;98.70;;;;;;5040027;28;19927;-47
2022/07/19 06:35:11;;;;;;;;;;;20.20;98.30;;;;;;5033949;28;20444;-47
2022/07/19 06:37:37;;;;;;;9.95;6.70;;;20.30;98.40;;;;;;5040003;28;19940;-44
2022/07/19 06:40:03;;;;;;;;;;;20.30;98.00;;;;;;5035913;28;20037;-45
2022/07/19 06:42:28;;;;;;;12.00;6.18;;;20.40;97.70;;;;;;5033979;28;19917;-46
2022/07/19 06:44:54;;;;;;;;;;;20.50;97.70;;;;;;5032262;28;20045;-48
2022/07/19 06:47:19;;;;;;;8.88;6.07;;;20.60;97.50;;;;;;5027991;28;19917;-45
2022/07/19 06:49:45;;;;;;;11.65;5.85;;;20.70;97.50;;;;;;5030830;28;20049;-48
2022/07/19 06:52:10;;;;;;;;;;;20.80;97.60;;;;;;5027478;28;20052;-47
2022/07/19 06:54:36;;;;;;;11.25;6.30;;;20.90;97.20;;;;;;5038008;28;19928;-45
2022/07/19 06:57:01;;;;;;;;;;;21.00;96.70;;;;;;5035891;28;20250;-46
2022/07/19 06:59:27;;;;;;;44.33;7.63;;;21.10;96.70;;;;;;5031948;28;19925;-46
2022/07/19 07:01:52;;;;;;;;;;;21.20;96.50;;;;;;5040584;28;20124;-47
2022/07/19 07:04:18;;;;;;;13.13;5.72;;;21.30;96.30;;;;;;5037190;28;19921;-46
2022/07/19 07:06:44;;;;;;;;;;;21.40;96.50;;;;;;5036816;28;20036;-46
2022/07/19 07:09:10;;;;;;;13.43;5.97;;;21.50;96.30;;;;;;5027106;28;20386;-46
2022/07/19 07:11:35;;;;;;;;;;;21.60;96.50;;;;;;5031160;28;20034;-45
2022/07/19 07:14:01;;;;;;;15.57;5.35;;;21.80;96.20;;;;;;5031420;28;19917;-46
2022/07/19 07:16:26;;;;;;;;;;;21.80;96.20;;;;;;5030172;28;20107;-46
2022/07/19 07:18:52;;;;;;;6.82;5.57;;;21.90;95.90;;;;;;5029523;28;19917;-46
2022/07/19 07:21:17;;;;;;;;;;;22.00;96.20;;;;;;5034105;28;20041;-47
2022/07/19 07:23:43;;;;;;;9.13;4.78;;;22.00;95.80;;;;;;5035642;28;19939;-45
2022/07/19 07:26:08;;;;;;;7.28;4.85;;;22.20;96.00;;;;;;5030647;28;20520;-44
2022/07/19 07:28:34;;;;;;;11.43;4.22;;;22.20;95.90;;;;;;5026395;28;20042;-45
2022/07/19 07:31:00;;;;;;;;;;;22.40;96.00;;;;;;5037091;28;20521;-45
2022/07/19 07:33:25;;;;;;;10.52;4.82;;;22.50;96.00;;;;;;5039958;28;19924;-46
2022/07/19 07:35:51;;;;;;;;;;;22.60;95.50;;;;;;5037679;28;20427;-46
2022/07/19 07:38:17;;;;;;;9.00;4.47;;;22.70;95.70;;;;;;5033134;28;19956;-45
2022/07/19 07:40:42;;;;;;;;;;;22.80;95.90;;;;;;5032129;28;20044;-45
2022/07/19 07:43:08;;;;;;;8.55;4.13;;;22.90;95.20;;;;;;5034762;28;19962;-45
2022/07/19 07:45:33;;;;;;;6.88;3.95;;;23.00;95.40;;;;;;5038438;28;20036;-45
2022/07/19 07:47:59;;;;;;;;;;;23.10;95.30;;;;;;5041477;28;20037;-45
2022/07/19 07:50:25;;;;;;;7.38;4.22;;;23.20;95.00;;;;;;5025575;28;19921;-45
2022/07/19 07:52:50;;;;;;;;;;;23.30;95.10;;;;;;5029040;28;20041;-47
2022/07/19 07:55:16;;;;;;;11.55;4.00;;;23.40;94.60;;;;;;5037576;28;19928;-45
2022/07/19 07:57:42;;;;;;;10.50;4.28;;;23.50;95.10;;;;;;5032373;28;20426;-44
2022/07/19 08:00:11;;;;;;;18.63;3.75;;;23.60;94.90;;;;;;5043690;28;20204;-45
2022/07/19 08:02:45;;;;;;;6.97;3.13;;;23.70;94.60;;;;;;5029004;28;20076;-48
2022/07/19 08:05:11;;;;;;;8.02;3.05;;;23.90;94.20;;;;;;5040360;28;20055;-45
2022/07/19 08:07:37;;;;;;;12.48;2.90;;;24.00;94.40;;;;;;5042772;28;20049;-46
2022/07/19 08:10:06;;;;;;;9.30;2.70;;;24.10;94.10;;;;;;5029966;28;20083;-46
2022/07/19 08:12:32;;;;;;;10.40;2.80;;;24.30;93.70;;;;;;5033586;28;20056;-46
2022/07/19 08:14:58;;;;;;;3.70;2.40;;;24.40;93.70;;;;;;5039880;28;20041;-46
2022/07/19 08:17:23;;;;;;;4.63;1.90;;;24.60;93.80;;;;;;5035476;28;20116;-45
2022/07/19 08:19:49;;;;;;;2.90;2.17;;;24.70;93.40;;;;;;5039588;28;20567;-44
2022/07/19 08:22:16;;;;;;;13.02;2.67;;;24.90;92.80;;;;;;5045167;28;20041;-45
2022/07/19 08:24:42;;;;;;;5.95;2.50;;;25.10;93.00;;;;;;5044084;28;20037;-45
2022/07/19 08:27:08;;;;;;;3.78;1.85;;;25.20;92.70;;;;;;5039047;28;20453;-46
2022/07/19 08:29:33;;;;;;;6.68;2.42;;;25.30;92.40;;;;;;5044568;28;20033;-46
2022/07/19 08:31:59;;;;;;;11.38;2.92;;;25.50;92.30;;;;;;5044720;28;20052;-47
2022/07/19 08:34:25;;;;;;;4.63;1.80;;;25.50;91.90;;;;;;5037323;28;20410;-48
2022/07/19 08:36:50;;;;;;;6.43;1.88;;;25.70;91.70;;;;;;5037364;28;20048;-48
2022/07/19 08:39:16;;;;;;;8.13;2.42;;;25.80;92.00;;;;;;5034937;28;20072;-45
2022/07/19 08:41:44;;;;;;;4.57;1.80;;;25.90;91.80;;;;;;5035566;28;20040;-47
2022/07/19 08:44:10;;;;;;;6.45;1.30;;;26.20;90.40;;;;;;5034069;28;20041;-45
2022/07/19 08:46:36;;;;;;;7.72;1.77;;;26.30;90.70;;;;;;5034140;28;20044;-45
2022/07/19 08:49:02;;;;;;;3.65;1.60;;;26.50;90.60;;;;;;5033855;28;20037;-48
2022/07/19 08:51:28;;;;;;;8.32;2.38;;;26.60;90.70;;;;;;5036030;28;20036;-45
2022/07/19 08:53:54;;;;;;;4.28;1.95;;;26.70;90.40;;;;;;5034972;28;20037;-47
2022/07/19 08:59:04;;;;;;;5.85;2.05;;;26.90;90.00;;;;;;5032014;28;20041;-45
2022/07/19 09:01:30;;;;;;;5.68;1.73;;;27.00;88.80;;;;;;5032052;28;20466;-46
2022/07/19 09:04:07;;;;;;;6.18;1.65;;;27.20;88.00;;;;;;5034841;28;20048;-45
2022/07/19 09:06:47;;;;;;;2.33;0.90;;;27.30;88.00;;;;;;5032171;28;20116;-46
2022/07/19 09:09:16;;;;;;;8.10;1.58;;;27.40;86.80;;;;;;5033186;28;20045;-46
2022/07/19 09:11:53;;;;;;;2.22;0.93;;;27.60;85.40;;;;;;5036367;28;20049;-45
2022/07/19 09:14:24;;;;;;;1.98;1.10;;;27.80;85.30;;;;;;5037133;28;20355;-46
2022/07/19 09:16:52;;;;;;;3.72;1.02;;;27.90;84.40;;;;;;5037533;28;20052;-46
2022/07/19 09:19:19;;;;;;;9.25;1.67;;;28.10;83.30;;;;;;5037279;28;20041;-45
2022/07/19 09:21:56;;;;;;;4.25;1.05;;;28.20;81.20;;;;;;5027437;28;20025;-46
2022/07/19 09:24:23;;;;;;;4.90;1.42;;;28.30;81.40;;;;;;5038643;28;20371;-46
2022/07/19 09:26:59;;;;;;;4.90;1.10;;;28.40;80.70;;;;;;5039339;28;20120;-47
2022/07/19 09:29:27;;;;;;;5.45;1.30;;;28.50;78.40;;;;;;5039803;28;20041;-46
2022/07/19 09:32:19;;;;;;;4.72;1.27;;;28.60;79.00;;;;;;5037660;28;20099;-48
2022/07/19 09:35:01;;;;;;;2.83;1.08;;;28.70;78.10;;;;;;5038177;28;20131;-46
2022/07/19 09:37:32;;;;;;;8.63;1.10;;;28.80;77.80;;;;;;5039882;28;20787;-45
2022/07/19 09:40:03;;;;;;;7.68;1.10;;;28.80;79.30;;;;;;5036989;28;20032;-46
2022/07/19 09:42:40;;;;;;;5.40;1.38;;;28.90;78.60;;;;;;5038119;28;20037;-47
2022/07/19 09:45:11;;;;;;;4.28;1.00;;;29.00;76.80;;;;;;5035649;28;20582;-47
2022/07/19 09:47:42;;;;;;;6.95;0.82;;;29.00;77.50;;;;;;5039300;28;20052;-50
2022/07/19 09:50:16;;;;;;;6.82;1.60;;;29.10;76.60;;;;;;5037730;28;20204;-48
2022/07/19 09:52:43;;;;;;;4.60;1.55;;;29.20;79.20;;;;;;5039159;28;20037;-51
2022/07/19 09:55:09;;;;;;;5.80;1.10;;;29.30;76.90;;;;;;5038671;28;20079;-47
2022/07/19 09:57:41;;;;;;;3.78;1.08;;;29.40;77.50;;;;;;5036782;28;20239;-46
2022/07/19 10:00:09;;;;;;;3.33;0.88;;;29.60;76.90;;;;;;5036273;28;20068;-46
2022/07/19 10:02:37;;;;;;;6.03;0.95;;;29.70;77.10;;;;;;5035453;28;21134;-48
2022/07/19 10:05:05;;;;;;;4.18;1.02;;;29.70;75.80;;;;;;5029908;28;20041;-46
2022/07/19 10:07:32;;;;;;;9.60;1.10;;;29.80;73.90;;;;;;5032726;28;20064;-47
2022/07/19 10:10:06;;;;;;;5.72;1.40;;;29.90;72.70;;;;;;5034441;28;20597;-46
2022/07/19 10:12:33;;;;;;;5.00;0.73;;;29.90;73.30;;;;;;5030173;28;20045;-51
2022/07/19 10:14:58;;;;;;;5.45;1.17;;;29.90;72.20;;;;;;5033796;28;20051;-49
2022/07/19 10:18:02;;;;;;;6.70;1.10;;;30.00;72.60;;;;;;5036847;28;20038;-45
2022/07/19 10:20:29;;;;;;;8.15;1.00;;;30.10;70.20;;;;;;5036939;28;20044;-49
2022/07/19 10:22:57;;;;;;;9.00;0.90;;;30.20;71.90;;;;;;5035305;28;20037;-48
2022/07/19 10:25:23;;;;;;;4.18;0.88;;;30.30;70.20;;;;;;5034609;28;20068;-47
2022/07/19 10:27:54;;;;;;;5.53;0.90;;;30.30;71.00;;;;;;5025132;28;20037;-47
2022/07/19 10:30:23;;;;;;;4.10;1.05;;;30.40;67.60;;;;;;5034767;28;20450;-47
2022/07/19 10:32:50;;;;;;;3.72;0.50;;;30.40;66.90;;;;;;5035774;28;20074;-51
2022/07/19 10:35:27;;;;;;;4.68;0.95;;;30.50;66.60;;;;;;5036074;28;20037;-47
2022/07/19 10:38:09;;;;;;;4.50;1.17;;;30.60;65.70;;;;;;5028471;28;20035;-51
2022/07/19 10:40:41;;;;;;;6.43;1.08;;;30.60;65.70;;;;;;5034313;28;20140;-50
2022/07/19 10:43:07;;;;;;;8.23;0.88;;;30.70;67.80;;;;;;5034189;28;20040;-49
2022/07/19 10:45:34;;;;;;;5.28;0.70;;;30.80;65.70;;;;;;5030826;28;20056;-49
2022/07/19 10:48:05;;;;;;;6.07;0.90;;;30.90;64.80;;;;;;5032856;28;20043;-48
2022/07/19 10:50:46;;;;;;;13.02;0.88;;;31.00;63.10;;;;;;5034706;28;20112;-51
2022/07/19 10:53:41;;;;;;;3.97;0.93;;;31.10;62.50;;;;;;5029911;28;20122;-47
2022/07/19 10:56:20;;;;;;;4.53;0.60;;;31.20;63.40;;;;;;5026431;28;20068;-46
2022/07/19 10:59:05;;;;;;;4.43;0.55;;;31.20;61.40;;;;;;5035869;28;20483;-48
2022/07/19 11:01:33;;;;;;;7.18;0.55;;;31.40;61.10;;;;;;5034393;28;20065;-45
2022/07/19 11:04:21;;;;;;;4.80;0.75;;;31.40;60.60;;;;;;5032124;28;20033;-49
2022/07/19 11:06:47;;;;;;;4.88;0.80;;;31.40;59.20;;;;;;5035100;28;20525;-49
2022/07/19 11:09:12;;;;;;;5.95;0.60;;;31.50;61.40;;;;;;5039270;28;20029;-50
2022/07/19 11:11:38;;;;;;;4.85;0.80;;;31.60;61.50;;;;;;5035160;28;20048;-48
2022/07/19 11:14:04;;;;;;;6.30;0.60;;;31.70;61.20;;;;;;5035051;28;20072;-46
2022/07/19 11:16:30;;;;;;;3.33;0.52;;;31.80;61.60;;;;;;5034432;28;20566;-46
2022/07/19 11:19:07;;;;;;;7.72;0.90;;;31.90;60.50;;;;;;5035678;28;20136;-50
2022/07/19 11:21:34;;;;;;;8.48;0.40;;;31.90;58.80;;;;;;5035483;28;20048;-46
2022/07/19 11:24:01;;;;;;;2.15;0.40;;;32.00;59.40;;;;;;5035526;28;20033;-51
2022/07/19 11:26:33;;;;;;;3.20;0.60;;;32.10;57.20;;;;;;5034894;28;20052;-49
2022/07/19 11:28:59;;;;;;;2.80;0.60;;;32.10;57.30;;;;;;5033995;28;20083;-46
2022/07/19 11:31:25;;;;;;;5.03;0.60;;;32.10;57.60;;;;;;5035261;28;20513;-46
2022/07/19 11:33:59;;;;;;;3.88;0.50;;;32.20;58.90;;;;;;5035729;28;20045;-48
2022/07/19 11:36:26;;;;;;;2.38;0.68;;;32.30;58.60;;;;;;5035964;28;20113;-50
2022/07/19 11:38:58;;;;;;;3.58;0.30;;;32.30;57.90;;;;;;5036458;28;20040;-47
2022/07/19 11:41:30;;;;;;;1.85;0.50;;;32.30;56.00;;;;;;5033807;28;20510;-46
2022/07/19 11:43:57;;;;;;;1.90;0.60;;;32.30;55.50;;;;;;5033111;28;20041;-46
2022/07/19 11:46:27;;;;;;;4.05;0.68;;;32.40;56.40;;;;;;5031890;28;20112;-47
2022/07/19 11:49:01;;;;;;;3.80;0.40;;;32.50;55.30;;;;;;5033746;28;20065;-46
2022/07/19 11:51:27;;;;;;;5.47;0.60;;;32.50;54.50;;;;;;5034263;28;20160;-47
2022/07/19 11:53:56;;;;;;;2.97;0.73;;;32.60;55.90;;;;;;5033294;28;20033;-46
2022/07/19 11:56:25;;;;;;;4.82;0.75;;;32.60;55.80;;;;;;5033389;28;20111;-46
2022/07/19 11:58:52;;;;;;;5.43;1.55;;;32.70;54.30;;;;;;5035823;28;20046;-46
2022/07/19 12:01:32;;;;;;;1.08;0.40;;;32.70;54.30;;;;;;5031537;28;20040;-47
2022/07/19 12:04:09;;;;;;;1.20;0.47;;;32.70;52.70;;;;;;5031469;28;20033;-48
2022/07/19 12:06:40;;;;;;;4.95;0.75;;;32.70;52.70;;;;;;5032851;28;20462;-49
2022/07/19 12:09:15;;;;;;;4.35;0.55;;;32.80;52.50;;;;;;5031713;28;20037;-50
2022/07/19 12:11:49;;;;;;;2.10;0.80;;;32.90;52.80;;;;;;5033185;28;20044;-46
2022/07/19 12:14:27;;;;;;;1.77;0.50;;;33.00;52.90;;;;;;5033154;28;20033;-50
2022/07/19 12:17:14;;;;;;;1.48;0.30;;;33.00;52.40;;;;;;5034850;28;20044;-47
2022/07/19 12:20:03;;;;;;;2.90;0.38;;;33.00;53.60;;;;;;5031601;28;20572;-50
2022/07/19 12:22:37;;;;;;;4.80;0.60;;;33.00;56.00;;;;;;5024248;28;20049;-49
2022/07/19 12:25:06;;;;;;;2.70;0.50;;;33.00;53.40;;;;;;5032315;28;20387;-46
2022/07/19 12:27:32;;;;;;;2.78;0.47;;;33.10;51.60;;;;;;5033803;28;20094;-46
2022/07/19 12:29:58;;;;;;;6.40;0.43;;;33.20;52.10;;;;;;5033165;28;20091;-48
2022/07/19 12:32:35;;;;;;;2.42;0.60;;;33.20;51.00;;;;;;5033745;28;20040;-50
2022/07/19 12:35:21;;;;;;;2.67;0.40;;;33.30;52.50;;;;;;5035250;28;20049;-49
2022/07/19 12:37:50;;;;;;;5.95;0.50;;;33.30;52.10;;;;;;5033283;28;20038;-50
2022/07/19 12:40:21;;;;;;;3.63;0.60;;;33.40;51.50;;;;;;5031612;28;20547;-48
2022/07/19 12:42:48;;;;;;;0.68;0.45;;;33.40;50.30;;;;;;5037354;28;20033;-45
2022/07/19 12:45:22;;;;;;;3.85;0.60;;;33.40;51.80;;;;;;5033290;28;20032;-45
2022/07/19 12:47:50;;;;;;;3.75;0.63;;;33.40;50.10;;;;;;5041178;28;20099;-45
2022/07/19 12:50:29;;;;;;;5.38;0.60;;;33.50;51.60;;;;;;5043450;28;20036;-47
2022/07/19 12:52:57;;;;;;;3.90;0.50;;;33.50;52.30;;;;;;5045022;28;20041;-46
2022/07/19 12:55:25;;;;;;;3.92;0.40;;;33.50;50.50;;;;;;5038972;28;20394;-45
2022/07/19 12:57:52;;;;;;;7.72;0.50;;;33.60;49.80;;;;;;5038515;28;20403;-46
2022/07/19 13:00:19;;;;;;;2.75;0.40;;;33.60;49.10;;;;;;5029627;28;20470;-48